createdAt,value
2018-12-13T00:00:05.240Z,5.63
2018-12-13T00:01:03.784Z,5.76
2018-12-13T00:02:02.322Z,5.81
2018-12-13T00:03:00.860Z,5.71
2018-12-13T00:03:59.438Z,5.71
2018-12-13T00:04:58.033Z,5.79
2018-12-13T00:05:56.823Z,5.75
2018-12-13T00:06:55.534Z,5.76
2018-12-13T00:07:54.203Z,5.86
2018-12-13T00:08:52.917Z,5.67
2018-12-13T00:09:51.525Z,5.81
2018-12-13T00:10:50.201Z,5.68
2018-12-13T00:11:48.870Z,5.72
2018-12-13T00:12:47.569Z,5.71
2018-12-13T00:13:46.286Z,5.65
2018-12-13T00:14:45.031Z,5.65
2018-12-13T00:15:43.548Z,5.78
2018-12-13T00:16:42.061Z,5.64
2018-12-13T00:17:40.631Z,5.67
2018-12-13T00:18:39.155Z,5.64
2018-12-13T00:19:37.732Z,5.74
2018-12-13T00:20:36.502Z,5.64
2018-12-13T00:21:35.357Z,5.6
2018-12-13T00:22:33.841Z,5.67
2018-12-13T00:23:32.598Z,5.68
2018-12-13T00:24:31.333Z,5.68
2018-12-13T00:25:29.880Z,5.56
2018-12-13T00:26:28.565Z,5.67
2018-12-13T00:27:27.186Z,5.64
2018-12-13T00:28:25.747Z,5.67
2018-12-13T00:29:24.564Z,5.76
2018-12-13T00:30:23.382Z,5.67
2018-12-13T00:31:21.951Z,5.64
2018-12-13T00:32:20.625Z,5.72
2018-12-13T00:33:19.253Z,5.74
2018-12-13T00:34:17.795Z,5.72
2018-12-13T00:35:16.610Z,5.75
2018-12-13T00:36:15.385Z,5.74
2018-12-13T00:37:13.889Z,5.72
2018-12-13T00:38:12.414Z,5.64
2018-12-13T00:39:10.966Z,5.64
2018-12-13T00:40:09.483Z,5.45
2018-12-13T00:41:08.081Z,5.49
2018-12-13T00:42:06.737Z,5.53
2018-12-13T00:43:05.444Z,5.54
2018-12-13T00:44:03.997Z,5.74
2018-12-13T00:45:02.765Z,5.71
2018-12-13T00:46:01.297Z,5.76
2018-12-13T00:46:59.891Z,5.85
2018-12-13T00:47:58.497Z,5.83
2018-12-13T00:48:57.053Z,5.76
2018-12-13T00:49:55.604Z,5.85
2018-12-13T00:50:54.131Z,5.86
2018-12-13T00:51:52.682Z,5.79
2018-12-13T00:52:51.196Z,5.86
2018-12-13T00:53:49.722Z,5.82
2018-12-13T00:54:48.508Z,5.68
2018-12-13T00:55:47.202Z,5.6
2018-12-13T00:56:45.786Z,5.39
2018-12-13T00:57:44.446Z,5.51
2018-12-13T00:58:43.167Z,5.42
2018-12-13T00:59:47.292Z,5.31
2018-12-13T01:00:45.824Z,5.21
2018-12-13T01:01:44.580Z,5.38
2018-12-13T01:02:43.140Z,5.43
2018-12-13T01:03:41.690Z,5.27
2018-12-13T01:04:40.230Z,5.06
2018-12-13T01:05:38.945Z,5.1
2018-12-13T01:06:37.490Z,5.22
2018-12-13T01:07:36.071Z,5.03
2018-12-13T01:08:35.048Z,5.1
2018-12-13T01:09:33.631Z,5.07
2018-12-13T01:10:32.151Z,5.03
2018-12-13T01:11:30.734Z,5.07
2018-12-13T01:12:29.278Z,4.97
2018-12-13T01:13:27.863Z,5.02
2018-12-13T01:14:26.416Z,5.03
2018-12-13T01:15:25.068Z,4.94
2018-12-13T01:16:23.892Z,5.02
2018-12-13T01:17:22.667Z,4.91
2018-12-13T01:18:21.327Z,4.94
2018-12-13T01:19:19.871Z,5.07
2018-12-13T01:20:18.413Z,5.09
2018-12-13T01:21:20.525Z,4.94
2018-12-13T01:22:15.504Z,4.78
2018-12-13T01:23:14.063Z,4.97
2018-12-13T01:24:12.703Z,5.17
2018-12-13T01:25:11.418Z,5.21
2018-12-13T01:26:09.961Z,5.13
2018-12-13T01:27:08.802Z,5.15
2018-12-13T01:28:07.368Z,5.24
2018-12-13T01:29:05.916Z,5.21
2018-12-13T01:30:04.617Z,5.24
2018-12-13T01:31:03.191Z,5.02
2018-12-13T01:32:01.717Z,4.97
2018-12-13T01:33:00.432Z,5.02
2018-12-13T01:33:59.225Z,5.13
2018-12-13T01:34:57.770Z,4.75
2018-12-13T01:35:56.555Z,4.78
2018-12-13T01:36:55.245Z,4.8
2018-12-13T01:37:53.790Z,4.78
2018-12-13T01:38:52.469Z,4.8
2018-12-13T01:39:51.169Z,5
2018-12-13T01:40:49.732Z,5.02
2018-12-13T01:41:48.551Z,5.04
2018-12-13T01:42:47.209Z,5.04
2018-12-13T01:43:45.781Z,4.82
2018-12-13T01:44:44.309Z,4.69
2018-12-13T01:45:42.920Z,4.63
2018-12-13T01:46:41.459Z,4.7
2018-12-13T01:47:39.990Z,4.72
2018-12-13T01:48:38.723Z,4.92
2018-12-13T01:49:37.397Z,4.96
2018-12-13T01:50:36.050Z,4.89
2018-12-13T01:51:34.696Z,4.78
2018-12-13T01:52:33.348Z,4.8
2018-12-13T01:53:31.891Z,5.02
2018-12-13T01:54:30.499Z,5.03
2018-12-13T01:55:29.059Z,5.06
2018-12-13T01:56:27.757Z,5.09
2018-12-13T01:57:26.347Z,5.24
2018-12-13T01:58:25.221Z,5.12
2018-12-13T01:59:23.769Z,5.2
2018-12-13T02:00:22.540Z,5.1
2018-12-13T02:01:21.125Z,5.07
2018-12-13T02:02:19.684Z,4.99
2018-12-13T02:03:18.365Z,4.75
2018-12-13T02:04:17.230Z,4.89
2018-12-13T02:05:15.763Z,4.67
2018-12-13T02:06:14.462Z,4.8
2018-12-13T02:07:13.081Z,4.96
2018-12-13T02:08:11.619Z,5.02
2018-12-13T02:09:10.142Z,5.03
2018-12-13T02:10:08.657Z,4.97
2018-12-13T02:11:07.227Z,4.99
2018-12-13T02:12:05.781Z,4.91
2018-12-13T02:13:04.327Z,4.97
2018-12-13T02:14:02.904Z,4.8
2018-12-13T02:15:01.448Z,4.72
2018-12-13T02:15:59.993Z,4.77
2018-12-13T02:16:58.657Z,4.91
2018-12-13T02:17:57.363Z,4.88
2018-12-13T02:18:55.941Z,4.89
2018-12-13T02:19:54.725Z,4.78
2018-12-13T02:20:53.387Z,4.73
2018-12-13T02:21:51.935Z,4.75
2018-12-13T02:22:50.480Z,4.82
2018-12-13T02:23:49.028Z,5
2018-12-13T02:24:47.616Z,4.91
2018-12-13T02:25:46.309Z,5
2018-12-13T02:26:45.147Z,5.02
2018-12-13T02:27:43.760Z,4.97
2018-12-13T02:28:42.403Z,4.91
2018-12-13T02:29:41.017Z,4.73
2018-12-13T02:30:39.528Z,4.58
2018-12-13T02:31:38.078Z,4.73
2018-12-13T02:32:36.724Z,4.58
2018-12-13T02:33:35.285Z,4.6
2018-12-13T02:34:33.799Z,4.62
2018-12-13T02:35:32.443Z,4.66
2018-12-13T02:36:31.234Z,4.73
2018-12-13T02:37:29.787Z,4.73
2018-12-13T02:38:28.483Z,4.65
2018-12-13T02:39:27.129Z,4.77
2018-12-13T02:40:25.681Z,4.7
2018-12-13T02:41:24.204Z,4.75
2018-12-13T02:42:22.738Z,4.69
2018-12-13T02:43:21.279Z,4.77
2018-12-13T02:44:19.822Z,4.94
2018-12-13T02:45:18.712Z,4.86
2018-12-13T02:46:17.306Z,4.92
2018-12-13T02:47:15.864Z,4.89
2018-12-13T02:48:14.600Z,4.75
2018-12-13T02:49:13.265Z,4.82
2018-12-13T02:50:11.831Z,4.65
2018-12-13T02:51:10.355Z,4.72
2018-12-13T02:52:08.878Z,4.78
2018-12-13T02:53:07.489Z,4.59
2018-12-13T02:54:06.014Z,4.48
2018-12-13T02:55:04.688Z,4.58
2018-12-13T02:56:03.337Z,4.62
2018-12-13T02:57:01.884Z,4.69
2018-12-13T02:58:00.758Z,4.4
2018-12-13T02:58:59.338Z,4.52
2018-12-13T02:59:57.892Z,4.52
2018-12-13T03:00:56.528Z,4.36
2018-12-13T03:01:55.078Z,4.27
2018-12-13T03:02:53.590Z,4.24
2018-12-13T03:03:52.150Z,4.27
2018-12-13T03:04:50.661Z,4.4
2018-12-13T03:05:49.187Z,4.2
2018-12-13T03:06:47.753Z,4.33
2018-12-13T03:07:46.391Z,4.4
2018-12-13T03:08:45.039Z,4.32
2018-12-13T03:09:43.566Z,4.22
2018-12-13T03:10:42.150Z,4.24
2018-12-13T03:11:40.975Z,4.14
2018-12-13T03:12:39.561Z,4.14
2018-12-13T03:13:38.080Z,4.2
2018-12-13T03:14:36.803Z,4.15
2018-12-13T03:15:35.342Z,4.12
2018-12-13T03:16:33.893Z,4
2018-12-13T03:17:32.492Z,4.11
2018-12-13T03:18:31.238Z,4.08
2018-12-13T03:19:29.787Z,4.18
2018-12-13T03:20:28.614Z,4.16
2018-12-13T03:21:27.402Z,4.14
2018-12-13T03:22:25.974Z,4.26
2018-12-13T03:23:24.639Z,4.27
2018-12-13T03:24:23.173Z,4.22
2018-12-13T03:25:21.734Z,4.3
2018-12-13T03:26:21.110Z,4.23
2018-12-13T03:27:20.827Z,4.05
2018-12-13T03:28:19.462Z,4.2
2018-12-13T03:29:17.977Z,4.09
2018-12-13T03:30:16.762Z,4.2
2018-12-13T03:31:15.322Z,4.33
2018-12-13T03:32:13.873Z,4.27
2018-12-13T03:33:12.431Z,4.27
2018-12-13T03:34:11.022Z,4.22
2018-12-13T03:35:09.561Z,4.24
2018-12-13T03:36:08.082Z,4.24
2018-12-13T03:37:06.632Z,4.26
2018-12-13T03:38:05.248Z,4.33
2018-12-13T03:39:03.815Z,4.41
2018-12-13T03:40:02.609Z,4.55
2018-12-13T03:41:01.337Z,4.51
2018-12-13T03:41:59.862Z,4.45
2018-12-13T03:42:58.625Z,4.48
2018-12-13T03:43:57.188Z,4.48
2018-12-13T03:44:55.739Z,4.4
2018-12-13T03:45:54.301Z,4.51
2018-12-13T03:46:52.927Z,4.47
2018-12-13T03:47:51.512Z,4.48
2018-12-13T03:48:50.059Z,4.62
2018-12-13T03:49:49.093Z,4.52
2018-12-13T03:50:47.668Z,4.54
2018-12-13T03:51:46.240Z,4.6
2018-12-13T03:52:44.863Z,4.66
2018-12-13T03:53:43.397Z,4.5
2018-12-13T03:54:42.227Z,4.4
2018-12-13T03:55:41.045Z,4.58
2018-12-13T03:56:39.617Z,4.59
2018-12-13T03:57:38.166Z,4.52
2018-12-13T03:58:36.875Z,4.59
2018-12-13T03:59:35.423Z,4.47
2018-12-13T04:00:33.938Z,4.37
2018-12-13T04:01:32.506Z,4.55
2018-12-13T04:02:31.047Z,4.6
2018-12-13T04:03:29.618Z,4.52
2018-12-13T04:04:28.106Z,4.51
2018-12-13T04:05:26.761Z,4.34
2018-12-13T04:06:25.259Z,4.2
2018-12-13T04:07:27.688Z,4.22
2018-12-13T04:08:22.563Z,4.18
2018-12-13T04:09:22.100Z,4.26
2018-12-13T04:10:20.905Z,4.24
2018-12-13T04:11:19.444Z,3.97
2018-12-13T04:12:17.978Z,4.09
2018-12-13T04:13:16.591Z,4.26
2018-12-13T04:14:15.239Z,4.14
2018-12-13T04:15:13.753Z,4.12
2018-12-13T04:16:12.436Z,3.98
2018-12-13T04:17:11.509Z,4.04
2018-12-13T04:18:10.037Z,4.09
2018-12-13T04:19:08.749Z,3.97
2018-12-13T04:20:07.306Z,4.05
2018-12-13T04:21:05.829Z,3.8
2018-12-13T04:22:04.395Z,3.96
2018-12-13T04:23:03.162Z,3.98
2018-12-13T04:24:01.704Z,4.02
2018-12-13T04:25:00.605Z,3.97
2018-12-13T04:25:59.266Z,4.15
2018-12-13T04:26:57.807Z,4.16
2018-12-13T04:27:56.361Z,4.02
2018-12-13T04:28:54.929Z,4.15
2018-12-13T04:29:53.476Z,4.12
2018-12-13T04:30:52.052Z,4.09
2018-12-13T04:31:50.772Z,3.98
2018-12-13T04:32:49.447Z,4
2018-12-13T04:33:47.983Z,3.98
2018-12-13T04:34:46.766Z,4.06
2018-12-13T04:35:45.319Z,3.98
2018-12-13T04:36:43.884Z,4.05
2018-12-13T04:37:42.425Z,4.02
2018-12-13T04:40:22.534Z,4.06
2018-12-13T04:41:21.079Z,4.05
2018-12-13T04:42:19.624Z,4.02
2018-12-13T04:43:18.341Z,3.98
2018-12-13T04:44:17.343Z,3.98
2018-12-13T04:45:15.864Z,4
2018-12-13T04:46:14.542Z,3.78
2018-12-13T04:47:13.093Z,3.78
2018-12-13T04:48:11.679Z,3.65
2018-12-13T04:49:10.210Z,3.6
2018-12-13T04:50:09.005Z,3.65
2018-12-13T04:51:07.556Z,3.8
2018-12-13T04:52:06.078Z,3.86
2018-12-13T04:53:05.069Z,3.93
2018-12-13T04:54:03.612Z,3.93
2018-12-13T04:55:02.146Z,3.72
2018-12-13T04:56:00.716Z,3.55
2018-12-13T04:56:59.284Z,3.65
2018-12-13T04:57:57.851Z,3.62
2018-12-13T04:58:56.568Z,3.72
2018-12-13T04:59:55.237Z,3.6
2018-12-13T05:00:53.806Z,3.78
2018-12-13T05:01:52.601Z,3.78
2018-12-13T05:02:51.237Z,3.61
2018-12-13T05:03:49.759Z,3.54
2018-12-13T05:04:48.289Z,3.54
2018-12-13T05:05:46.897Z,3.62
2018-12-13T05:06:45.449Z,3.43
2018-12-13T05:07:44.100Z,3.6
2018-12-13T05:08:42.751Z,3.68
2018-12-13T05:09:41.436Z,3.76
2018-12-13T05:10:40.221Z,3.88
2018-12-13T05:11:38.922Z,3.9
2018-12-13T05:12:37.476Z,3.86
2018-12-13T05:13:36.013Z,3.76
2018-12-13T05:14:34.538Z,3.69
2018-12-13T05:15:33.096Z,3.83
2018-12-13T05:16:31.655Z,3.66
2018-12-13T05:17:30.304Z,3.65
2018-12-13T05:18:28.946Z,3.6
2018-12-13T05:19:27.514Z,3.55
2018-12-13T05:20:26.077Z,3.47
2018-12-13T05:21:24.948Z,3.48
2018-12-13T05:22:23.482Z,3.47
2018-12-13T05:23:22.004Z,3.35
2018-12-13T05:24:20.692Z,3.39
2018-12-13T05:25:19.247Z,3.54
2018-12-13T05:26:17.785Z,3.43
2018-12-13T05:27:16.404Z,3.29
2018-12-13T05:28:15.048Z,3.11
2018-12-13T05:29:13.575Z,3.21
2018-12-13T05:30:12.116Z,3.24
2018-12-13T05:31:10.930Z,3.42
2018-12-13T05:32:09.665Z,3.42
2018-12-13T05:33:08.172Z,3.32
2018-12-13T05:34:06.884Z,3.26
2018-12-13T05:35:05.385Z,3.18
2018-12-13T05:36:03.930Z,3.26
2018-12-13T05:37:02.477Z,3.32
2018-12-13T05:38:01.059Z,3.28
2018-12-13T05:38:59.593Z,3.33
2018-12-13T05:39:58.182Z,3.24
2018-12-13T05:40:56.977Z,3.15
2018-12-13T05:41:55.542Z,3.23
2018-12-13T05:42:54.221Z,3.21
2018-12-13T05:43:52.917Z,3.24
2018-12-13T05:44:51.440Z,3.39
2018-12-13T05:45:49.986Z,3.23
2018-12-13T05:46:48.516Z,3.23
2018-12-13T05:47:47.039Z,3.18
2018-12-13T05:48:45.589Z,3.42
2018-12-13T05:49:44.134Z,3.42
2018-12-13T05:50:42.657Z,3.32
2018-12-13T05:51:41.178Z,3.18
2018-12-13T05:52:39.725Z,3.18
2018-12-13T05:53:38.457Z,3.32
2018-12-13T05:54:37.205Z,3.18
2018-12-13T05:55:35.753Z,3.17
2018-12-13T05:56:34.659Z,3.36
2018-12-13T05:57:33.257Z,3.29
2018-12-13T05:58:31.795Z,3.21
2018-12-13T05:59:30.339Z,3.28
2018-12-13T06:00:28.991Z,3.33
2018-12-13T06:01:27.502Z,3.32
2018-12-13T06:02:26.062Z,3.2
2018-12-13T06:03:25.010Z,3.39
2018-12-13T06:04:23.550Z,3.42
2018-12-13T06:05:22.105Z,3.43
2018-12-13T06:06:20.802Z,3.33
2018-12-13T06:07:19.357Z,3.31
2018-12-13T06:08:17.891Z,3.29
2018-12-13T06:09:16.527Z,3.51
2018-12-13T06:10:15.107Z,3.58
2018-12-13T06:11:13.642Z,3.43
2018-12-13T06:12:12.323Z,3.33
2018-12-13T06:13:11.236Z,3.33
2018-12-13T06:14:09.756Z,3.5
2018-12-13T06:15:08.354Z,3.47
2018-12-13T06:16:07.085Z,3.36
2018-12-13T06:17:05.632Z,3.33
2018-12-13T06:18:06.868Z,3.28
2018-12-13T06:19:03.082Z,3.31
2018-12-13T06:20:01.630Z,3.26
2018-12-13T06:21:00.380Z,3.31
2018-12-13T06:21:59.045Z,3.29
2018-12-13T06:22:57.754Z,3.26
2018-12-13T06:23:56.488Z,3.29
2018-12-13T06:24:55.280Z,3.14
2018-12-13T06:25:53.809Z,3.24
2018-12-13T06:26:52.484Z,3.28
2018-12-13T06:27:51.124Z,3.1
2018-12-13T06:28:49.643Z,3.15
2018-12-13T06:29:48.901Z,3.23
2018-12-13T06:30:46.760Z,3.39
2018-12-13T06:31:45.297Z,3.45
2018-12-13T06:32:43.878Z,3.31
2018-12-13T06:33:42.571Z,3.18
2018-12-13T06:34:41.323Z,3.06
2018-12-13T06:35:39.864Z,3.21
2018-12-13T06:36:38.630Z,3.21
2018-12-13T06:37:37.278Z,3.4
2018-12-13T06:38:35.824Z,3.33
2018-12-13T06:39:34.361Z,3.42
2018-12-13T06:40:32.918Z,3.45
2018-12-13T06:41:31.575Z,3.5
2018-12-13T06:42:30.205Z,3.55
2018-12-13T06:43:29.103Z,3.61
2018-12-13T06:44:27.682Z,3.72
2018-12-13T06:45:26.301Z,3.55
2018-12-13T06:46:24.975Z,3.39
2018-12-13T06:47:23.516Z,3.42
2018-12-13T06:48:22.113Z,3.65
2018-12-13T06:49:20.676Z,3.72
2018-12-13T06:50:19.224Z,3.72
2018-12-13T06:51:17.787Z,3.8
2018-12-13T06:52:16.468Z,3.61
2018-12-13T06:53:15.113Z,3.48
2018-12-13T06:54:13.760Z,3.45
2018-12-13T06:55:12.498Z,3.57
2018-12-13T06:56:11.099Z,3.65
2018-12-13T06:57:09.726Z,3.51
2018-12-13T06:58:08.261Z,3.55
2018-12-13T06:59:06.788Z,3.52
2018-12-13T07:00:05.376Z,3.57
2018-12-13T07:01:03.959Z,3.75
2018-12-13T07:02:02.583Z,3.75
2018-12-13T07:03:01.276Z,3.76
2018-12-13T07:03:59.789Z,3.87
2018-12-13T07:04:58.572Z,3.83
2018-12-13T07:05:57.211Z,3.78
2018-12-13T07:06:55.785Z,3.73
2018-12-13T07:07:54.335Z,3.73
2018-12-13T07:08:52.884Z,3.75
2018-12-13T07:09:51.391Z,3.84
2018-12-13T07:10:49.948Z,3.93
2018-12-13T07:11:48.484Z,4.06
2018-12-13T07:12:47.017Z,3.93
2018-12-13T07:13:45.561Z,3.83
2018-12-13T07:14:44.287Z,3.79
2018-12-13T07:15:43.132Z,3.8
2018-12-13T07:16:41.669Z,3.91
2018-12-13T07:17:40.251Z,4.04
2018-12-13T07:18:38.933Z,4
2018-12-13T07:19:37.491Z,4
2018-12-13T07:20:36.020Z,4.04
2018-12-13T07:21:34.838Z,3.98
2018-12-13T07:22:33.488Z,4.05
2018-12-13T07:23:32.061Z,4.06
2018-12-13T07:24:30.925Z,3.9
2018-12-13T07:25:29.472Z,3.84
2018-12-13T07:26:28.016Z,3.72
2018-12-13T07:27:26.684Z,3.72
2018-12-13T07:28:25.229Z,3.62
2018-12-13T07:29:23.777Z,3.51
2018-12-13T07:30:22.363Z,3.45
2018-12-13T07:31:21.039Z,3.42
2018-12-13T07:32:19.575Z,3.47
2018-12-13T07:33:18.108Z,3.45
2018-12-13T07:34:17.100Z,3.21
2018-12-13T07:35:15.652Z,3.26
2018-12-13T07:36:14.199Z,3.43
2018-12-13T07:37:12.826Z,3.28
2018-12-13T07:38:14.176Z,3.48
2018-12-13T07:39:10.076Z,3.52
2018-12-13T07:40:08.782Z,3.5
2018-12-13T07:41:07.429Z,3.7
2018-12-13T07:42:05.953Z,3.62
2018-12-13T07:43:04.816Z,3.6
2018-12-13T07:44:03.412Z,3.57
2018-12-13T07:45:02.064Z,3.52
2018-12-13T07:46:00.806Z,3.6
2018-12-13T07:46:59.463Z,3.76
2018-12-13T07:47:58.011Z,3.66
2018-12-13T07:48:56.815Z,3.68
2018-12-13T07:49:55.365Z,3.87
2018-12-13T07:50:53.881Z,3.73
2018-12-13T07:51:52.531Z,3.62
2018-12-13T07:52:51.048Z,3.6
2018-12-13T07:53:49.627Z,3.6
2018-12-13T07:54:48.167Z,3.39
2018-12-13T07:55:46.855Z,3.55
2018-12-13T07:56:45.531Z,3.36
2018-12-13T07:57:44.073Z,3.57
2018-12-13T07:58:42.926Z,3.54
2018-12-13T07:59:41.488Z,3.57
2018-12-13T08:00:40.081Z,3.62
2018-12-13T08:01:38.707Z,3.73
2018-12-13T08:02:37.270Z,3.54
2018-12-13T08:03:35.774Z,3.57
2018-12-13T08:04:34.320Z,3.54
2018-12-13T08:05:33.069Z,3.51
2018-12-13T08:06:31.610Z,3.65
2018-12-13T08:07:30.157Z,3.7
2018-12-13T08:08:29.182Z,3.6
2018-12-13T08:09:27.723Z,3.65
2018-12-13T08:10:26.339Z,3.75
2018-12-13T08:11:24.937Z,3.57
2018-12-13T08:12:23.469Z,3.58
2018-12-13T08:13:22.013Z,3.58
2018-12-13T08:14:20.743Z,3.62
2018-12-13T08:15:19.399Z,3.58
2018-12-13T08:16:17.914Z,3.72
2018-12-13T08:17:16.714Z,3.79
2018-12-13T08:18:15.418Z,3.78
2018-12-13T08:20:55.465Z,3.6
2018-12-13T08:21:54.011Z,3.61
2018-12-13T08:22:52.728Z,3.57
2018-12-13T08:23:51.427Z,3.73
2018-12-13T08:24:49.944Z,3.73
2018-12-13T08:25:48.735Z,3.62
2018-12-13T08:26:47.301Z,3.6
2018-12-13T08:27:45.841Z,3.28
2018-12-13T08:28:44.418Z,3.2
2018-12-13T08:29:43.030Z,3.43
2018-12-13T08:30:41.586Z,3.24
2018-12-13T08:31:40.132Z,3.47
2018-12-13T08:32:38.662Z,3.4
2018-12-13T08:33:37.210Z,3.36
2018-12-13T08:34:35.769Z,3.62
2018-12-13T08:35:34.501Z,3.72
2018-12-13T08:36:33.338Z,3.61
2018-12-13T08:37:31.888Z,3.54
2018-12-13T08:40:53.487Z,3.54
2018-12-13T08:41:52.028Z,3.57
2018-12-13T08:42:50.919Z,3.52
2018-12-13T08:43:49.497Z,3.65
2018-12-13T08:44:48.180Z,3.75
2018-12-13T08:45:46.672Z,3.55
2018-12-13T08:46:45.161Z,3.78
2018-12-13T08:47:43.704Z,4
2018-12-13T08:48:42.249Z,4.11
2018-12-13T08:49:40.783Z,3.97
2018-12-13T08:50:39.324Z,3.84
2018-12-13T08:51:37.890Z,4
2018-12-13T08:52:36.604Z,3.97
2018-12-13T08:53:35.258Z,4.04
2018-12-13T08:54:33.774Z,4.14
2018-12-13T08:55:32.557Z,4.05
2018-12-13T08:56:31.298Z,3.9
2018-12-13T08:57:29.850Z,4
2018-12-13T08:58:28.401Z,4
2018-12-13T08:59:26.967Z,3.98
2018-12-13T09:00:25.489Z,4.04
2018-12-13T09:01:24.043Z,3.98
2018-12-13T09:02:22.713Z,3.93
2018-12-13T09:03:21.473Z,3.72
2018-12-13T09:04:20.175Z,3.78
2018-12-13T09:05:18.872Z,3.93
2018-12-13T09:06:17.447Z,3.75
2018-12-13T09:07:15.982Z,3.72
2018-12-13T09:08:14.544Z,3.78
2018-12-13T09:09:13.108Z,3.69
2018-12-13T09:10:11.626Z,3.57
2018-12-13T09:11:10.148Z,3.72
2018-12-13T09:12:08.700Z,3.75
2018-12-13T09:13:07.265Z,3.75
2018-12-13T09:14:05.842Z,3.86
2018-12-13T09:15:04.504Z,3.83
2018-12-13T09:16:03.335Z,3.9
2018-12-13T09:17:01.861Z,3.78
2018-12-13T09:18:00.469Z,3.58
2018-12-13T09:18:59.147Z,3.45
2018-12-13T09:19:57.677Z,3.35
2018-12-13T09:20:56.217Z,3.45
2018-12-13T09:21:54.780Z,3.52
2018-12-13T09:22:53.346Z,3.72
2018-12-13T09:23:51.854Z,3.61
2018-12-13T09:24:50.531Z,3.8
2018-12-13T09:25:49.192Z,3.8
2018-12-13T09:26:47.744Z,3.96
2018-12-13T09:27:46.607Z,3.94
2018-12-13T09:28:45.333Z,3.98
2018-12-13T09:29:43.873Z,3.94
2018-12-13T09:30:42.436Z,4.04
2018-12-13T09:31:40.950Z,3.79
2018-12-13T09:32:39.493Z,3.93
2018-12-13T09:33:38.068Z,4.06
2018-12-13T09:34:36.871Z,4
2018-12-13T09:35:35.493Z,4
2018-12-13T09:36:34.010Z,4.02
2018-12-13T09:37:32.784Z,4.08
2018-12-13T09:38:31.341Z,4.08
2018-12-13T09:39:29.883Z,3.97
2018-12-13T09:40:28.446Z,3.83
2018-12-13T09:41:27.265Z,3.9
2018-12-13T09:42:25.801Z,3.8
2018-12-13T09:43:24.531Z,3.96
2018-12-13T09:44:23.264Z,4.02
2018-12-13T09:45:21.889Z,4.15
2018-12-13T09:46:20.579Z,4.26
2018-12-13T09:47:19.164Z,4.32
2018-12-13T09:48:17.772Z,4.18
2018-12-13T09:49:16.503Z,4.24
2018-12-13T09:50:15.333Z,4.29
2018-12-13T09:51:13.896Z,4.48
2018-12-13T09:52:12.529Z,4.37
2018-12-13T09:53:11.167Z,4.24
2018-12-13T09:54:09.730Z,4.14
2018-12-13T09:55:08.265Z,4.18
2018-12-13T09:56:06.836Z,4.4
2018-12-13T09:57:05.392Z,4.26
2018-12-13T09:58:04.012Z,4.2
2018-12-13T09:59:02.636Z,4.05
2018-12-13T10:00:01.378Z,4
2018-12-13T10:00:59.921Z,4.22
2018-12-13T10:01:58.709Z,4.34
2018-12-13T10:02:57.415Z,4.44
2018-12-13T10:03:55.968Z,4.36
2018-12-13T10:04:54.508Z,4.33
2018-12-13T10:05:53.044Z,4.54
2018-12-13T10:06:51.599Z,4.47
2018-12-13T10:07:50.415Z,4.52
2018-12-13T10:08:49.160Z,4.4
2018-12-13T10:09:47.831Z,4.32
2018-12-13T10:10:46.453Z,4.23
2018-12-13T10:11:45.075Z,4.36
2018-12-13T10:12:43.613Z,4.32
2018-12-13T10:13:42.308Z,4.52
2018-12-13T10:14:40.937Z,4.36
2018-12-13T10:15:39.564Z,4.52
2018-12-13T10:16:38.151Z,4.37
2018-12-13T10:17:36.897Z,4.5
2018-12-13T10:18:35.454Z,4.45
2018-12-13T10:19:33.995Z,4.41
2018-12-13T10:20:32.627Z,4.29
2018-12-13T10:21:31.195Z,4.55
2018-12-13T10:22:29.706Z,4.4
2018-12-13T10:23:28.245Z,4.33
2018-12-13T10:24:26.775Z,4.32
2018-12-13T10:25:25.329Z,4.45
2018-12-13T10:26:23.891Z,4.54
2018-12-13T10:27:22.693Z,4.58
2018-12-13T10:28:21.286Z,4.77
2018-12-13T10:29:19.846Z,4.77
2018-12-13T10:30:18.589Z,4.62
2018-12-13T10:31:17.148Z,4.65
2018-12-13T10:32:15.718Z,4.78
2018-12-13T10:33:14.249Z,4.89
2018-12-13T10:34:12.897Z,4.84
2018-12-13T10:35:11.727Z,4.67
2018-12-13T10:36:10.004Z,4.73
2018-12-13T10:37:08.743Z,4.66
2018-12-13T10:38:07.512Z,4.65
2018-12-13T10:39:06.113Z,4.7
2018-12-13T10:40:04.798Z,4.77
2018-12-13T10:41:03.449Z,4.82
2018-12-13T10:42:01.997Z,4.69
2018-12-13T10:43:00.615Z,4.72
2018-12-13T10:43:59.173Z,4.75
2018-12-13T10:44:57.721Z,4.84
2018-12-13T10:47:37.673Z,4.72
2018-12-13T10:48:36.344Z,4.91
2018-12-13T10:49:35.462Z,4.78
2018-12-13T10:50:33.985Z,4.84
2018-12-13T10:51:32.534Z,4.66
2018-12-13T10:52:31.137Z,4.78
2018-12-13T10:53:29.690Z,4.8
2018-12-13T10:54:28.308Z,4.97
2018-12-13T10:55:26.986Z,5.06
2018-12-13T10:56:25.532Z,5.4
2018-12-13T10:57:24.102Z,5.35
2018-12-13T10:58:23.023Z,5.17
2018-12-13T10:59:21.630Z,5.31
2018-12-13T11:00:20.169Z,4.99
2018-12-13T11:01:18.767Z,4.99
2018-12-13T11:02:17.315Z,4.97
2018-12-13T11:03:15.914Z,5.03
2018-12-13T11:04:14.619Z,5
2018-12-13T11:05:13.399Z,4.59
2018-12-13T11:06:11.956Z,4.59
2018-12-13T11:07:10.618Z,4.67
2018-12-13T11:08:09.301Z,4.72
2018-12-13T11:09:07.851Z,4.85
2018-12-13T11:10:06.408Z,4.85
2018-12-13T11:11:04.886Z,4.84
2018-12-13T11:12:03.461Z,4.75
2018-12-13T11:13:02.014Z,4.77
2018-12-13T11:14:00.545Z,4.54
2018-12-13T11:14:59.085Z,4.4
2018-12-13T11:15:57.619Z,4.62
2018-12-13T11:18:38.009Z,4.94
2018-12-13T11:19:36.725Z,5.09
2018-12-13T11:20:35.396Z,4.92
2018-12-13T11:21:33.925Z,4.82
2018-12-13T11:22:32.464Z,4.92
2018-12-13T11:23:31.078Z,4.97
2018-12-13T11:24:29.564Z,5
2018-12-13T11:25:28.103Z,4.88
2018-12-13T11:26:26.649Z,4.77
2018-12-13T11:27:25.182Z,4.91
2018-12-13T11:28:23.725Z,5.03
2018-12-13T11:29:22.423Z,4.92
2018-12-13T11:30:21.272Z,5.06
2018-12-13T11:31:19.812Z,5.06
2018-12-13T11:32:18.561Z,5.06
2018-12-13T11:33:17.206Z,5.18
2018-12-13T11:34:15.763Z,5.22
2018-12-13T11:35:14.350Z,5.25
2018-12-13T11:36:12.911Z,5.15
2018-12-13T11:37:11.486Z,5.3
2018-12-13T11:38:10.050Z,5.31
2018-12-13T11:39:09.088Z,5.43
2018-12-13T11:40:07.644Z,5.43
2018-12-13T11:41:06.170Z,5.53
2018-12-13T11:42:05.388Z,5.35
2018-12-13T11:43:03.401Z,5.39
2018-12-13T11:44:01.990Z,5.51
2018-12-13T11:45:00.579Z,5.58
2018-12-13T11:45:59.234Z,5.64
2018-12-13T11:46:57.784Z,5.38
2018-12-13T11:47:56.301Z,5.25
2018-12-13T11:48:55.087Z,5.17
2018-12-13T11:49:53.591Z,5.36
2018-12-13T11:50:52.195Z,5.38
2018-12-13T11:51:50.839Z,5.48
2018-12-13T11:52:49.548Z,5.39
2018-12-13T11:53:48.073Z,5.48
2018-12-13T11:54:46.599Z,5.51
2018-12-13T11:55:45.139Z,5.61
2018-12-13T11:56:43.706Z,5.76
2018-12-13T11:57:42.235Z,5.39
2018-12-13T11:58:40.969Z,5.33
2018-12-13T11:59:39.630Z,5.51
2018-12-13T12:00:38.221Z,5.63
2018-12-13T12:01:36.969Z,5.58
2018-12-13T12:02:35.491Z,5.6
2018-12-13T12:03:34.012Z,5.46
2018-12-13T12:04:32.631Z,5.6
2018-12-13T12:05:31.210Z,5.39
2018-12-13T12:06:29.769Z,5.36
2018-12-13T12:07:28.327Z,5.06
2018-12-13T12:08:27.119Z,5.21
2018-12-13T12:09:25.666Z,5.2
2018-12-13T12:10:24.278Z,5.1
2018-12-13T12:11:23.036Z,5
2018-12-13T12:12:21.601Z,5.25
2018-12-13T12:13:20.156Z,5.27
2018-12-13T12:14:18.815Z,5.06
2018-12-13T12:15:17.348Z,5.02
2018-12-13T12:16:15.913Z,5.27
2018-12-13T12:17:14.449Z,5.28
2018-12-13T12:18:12.969Z,5.25
2018-12-13T12:19:11.532Z,5.31
2018-12-13T12:20:10.100Z,5.46
2018-12-13T12:21:08.859Z,5.4
2018-12-13T12:22:07.543Z,5.28
2018-12-13T12:23:06.085Z,5.38
2018-12-13T12:24:04.806Z,5.3
2018-12-13T12:25:03.476Z,5.35
2018-12-13T12:26:02.034Z,5.43
2018-12-13T12:27:00.569Z,5.51
2018-12-13T12:27:59.150Z,5.27
2018-12-13T12:28:57.688Z,5.25
2018-12-13T12:29:56.439Z,5.1
2018-12-13T12:30:55.303Z,5.24
2018-12-13T12:31:53.902Z,5.3
2018-12-13T12:32:52.566Z,5.35
2018-12-13T12:33:51.141Z,5.54
2018-12-13T12:34:49.701Z,5.39
2018-12-13T12:35:48.232Z,5.39
2018-12-13T12:36:46.778Z,5.53
2018-12-13T12:37:45.334Z,5.38
2018-12-13T12:38:43.882Z,5.39
2018-12-13T12:39:42.580Z,5.53
2018-12-13T12:40:41.298Z,5.27
2018-12-13T12:41:39.862Z,5.42
2018-12-13T12:42:38.565Z,5.27
2018-12-13T12:43:37.299Z,5.35
2018-12-13T12:44:35.847Z,5.31
2018-12-13T12:45:34.384Z,5.53
2018-12-13T12:46:32.963Z,5.48
2018-12-13T12:47:31.484Z,5.25
2018-12-13T12:48:30.040Z,5.09
2018-12-13T12:49:28.747Z,5.24
2018-12-13T12:50:27.479Z,5.39
2018-12-13T12:51:26.912Z,5.33
2018-12-13T12:52:24.784Z,5.35
2018-12-13T12:53:23.479Z,5.3
2018-12-13T12:54:22.034Z,5.25
2018-12-13T12:55:20.865Z,5.24
2018-12-13T12:56:19.817Z,5.27
2018-12-13T12:57:18.405Z,5.43
2018-12-13T12:58:17.026Z,5.57
2018-12-13T12:59:15.562Z,5.35
2018-12-13T13:00:14.091Z,5.39
2018-12-13T13:01:12.647Z,5.57
2018-12-13T13:02:11.157Z,5.43
2018-12-13T13:03:09.737Z,5.42
2018-12-13T13:04:08.502Z,5.31
2018-12-13T13:05:07.333Z,5.21
2018-12-13T13:06:05.879Z,5.36
2018-12-13T13:07:04.504Z,5.48
2018-12-13T13:08:03.198Z,5.65
2018-12-13T13:09:01.690Z,5.48
2018-12-13T13:10:00.262Z,5.43
2018-12-13T13:10:58.805Z,5.54
2018-12-13T13:11:57.389Z,5.46
2018-12-13T13:12:55.918Z,5.56